createdAt,value
2019-04-07T00:00:00.384Z,35.63
2019-04-07T00:02:29.143Z,40.40
2019-04-07T00:04:58.356Z,33.03
2019-04-07T00:07:27.514Z,32.10
2019-04-07T00:09:57.652Z,40.60
2019-04-07T00:12:25.539Z,34.37
2019-04-07T00:14:54.076Z,33.80
2019-04-07T00:17:22.006Z,33.33
2019-04-07T00:19:50.392Z,34.03
2019-04-07T00:22:18.496Z,37.83
2019-04-07T00:24:46.753Z,31.75
2019-04-07T00:27:14.619Z,34.60
2019-04-07T00:29:42.781Z,34.73
2019-04-07T00:32:11.113Z,37.40
2019-04-07T00:34:39.718Z,27.73
2019-04-07T00:37:07.618Z,34.50
2019-04-07T00:39:36.178Z,31.50
2019-04-07T00:42:04.865Z,33.70
2019-04-07T00:44:33.146Z,33.77
2019-04-07T00:47:01.038Z,30.60
2019-04-07T00:49:29.657Z,33.17
2019-04-07T00:51:59.637Z,34.50
2019-04-07T00:54:28.116Z,35.90
2019-04-07T00:56:56.583Z,33.20
2019-04-07T00:59:24.642Z,36.47
2019-04-07T01:01:52.684Z,32.70
2019-04-07T01:04:21.713Z,33.57
2019-04-07T01:06:49.600Z,29.90
2019-04-07T01:09:17.651Z,31.17
2019-04-07T01:11:46.597Z,32.40
2019-04-07T01:14:14.546Z,28.70
2019-04-07T01:16:54.535Z,37.43
2019-04-07T01:19:25.356Z,34.17
2019-04-07T01:21:53.600Z,34.40
2019-04-07T01:24:21.983Z,30.40
2019-04-07T01:26:50.493Z,30.50
2019-04-07T01:29:18.487Z,28.00
2019-04-07T01:31:46.514Z,33.13
2019-04-07T01:34:15.041Z,31.75
2019-04-07T01:36:43.331Z,25.67
2019-04-07T01:39:11.960Z,27.20
2019-04-07T01:41:49.594Z,28.17
2019-04-07T01:44:25.817Z,27.87
2019-04-07T01:47:28.912Z,26.83
2019-04-07T01:50:23.186Z,26.77
2019-04-07T01:53:22.912Z,27.07
2019-04-07T01:56:06.374Z,31.73
2019-04-07T01:58:54.131Z,28.15
2019-04-07T02:01:40.525Z,34.35
2019-04-07T02:04:46.828Z,39.13
2019-04-07T02:07:40.700Z,39.03
2019-04-07T02:10:36.262Z,32.88
2019-04-07T02:13:27.539Z,35.38
2019-04-07T02:16:06.891Z,33.65
2019-04-07T02:18:59.698Z,37.13
2019-04-07T02:21:45.965Z,30.45
2019-04-07T02:24:31.157Z,27.60
2019-04-07T02:27:17.972Z,28.87
2019-04-07T02:30:05.837Z,27.62
2019-04-07T02:32:56.349Z,30.75
2019-04-07T02:35:50.534Z,31.77
2019-04-07T02:38:34.642Z,29.93
2019-04-07T02:41:17.885Z,28.30
2019-04-07T02:44:09.301Z,29.63
2019-04-07T02:46:52.235Z,26.70
2019-04-07T02:49:39.421Z,25.80
2019-04-07T02:52:30.811Z,24.13
2019-04-07T02:55:21.868Z,26.93
2019-04-07T02:58:21.327Z,23.77
2019-04-07T03:01:04.039Z,25.37
2019-04-07T03:03:50.355Z,24.57
2019-04-07T03:06:51.008Z,22.35
2019-04-07T03:09:44.304Z,25.90
2019-04-07T03:12:31.868Z,23.85
2019-04-07T03:15:11.666Z,25.48
2019-04-07T03:18:01.692Z,23.70
2019-04-07T03:20:53.894Z,25.80
2019-04-07T03:23:42.316Z,23.70
2019-04-07T03:26:29.312Z,23.50
2019-04-07T03:29:18.304Z,22.85
2019-04-07T03:32:27.577Z,22.17
2019-04-07T03:35:23.464Z,22.93
2019-04-07T03:38:12.097Z,26.33
2019-04-07T03:41:03.368Z,25.48
2019-04-07T03:43:51.131Z,24.77
2019-04-07T03:46:28.879Z,20.52
2019-04-07T03:49:03.909Z,27.52
2019-04-07T03:51:49.902Z,24.90
2019-04-07T03:54:26.750Z,23.57
2019-04-07T03:57:15.071Z,27.70
2019-04-07T04:00:02.240Z,24.90
2019-04-07T04:02:50.552Z,30.52
2019-04-07T04:05:41.388Z,27.60
2019-04-07T04:08:29.087Z,29.50
2019-04-07T04:11:07.050Z,26.40
2019-04-07T04:13:45.774Z,27.67
2019-04-07T04:16:18.018Z,25.15
2019-04-07T04:18:45.945Z,28.47
2019-04-07T04:21:13.886Z,24.92
2019-04-07T04:23:43.105Z,23.38
2019-04-07T04:26:11.663Z,24.63
2019-04-07T04:28:39.549Z,23.40
2019-04-07T04:31:07.435Z,24.87
2019-04-07T04:33:35.288Z,25.02
2019-04-07T04:36:03.178Z,23.95
2019-04-07T04:38:31.837Z,25.27
2019-04-07T04:41:00.154Z,25.10
2019-04-07T04:43:28.311Z,31.37
2019-04-07T04:45:56.839Z,25.30
2019-04-07T04:48:25.929Z,31.65
2019-04-07T04:50:54.143Z,24.65
2019-04-07T04:53:22.643Z,25.30
2019-04-07T04:55:51.489Z,24.40
2019-04-07T04:58:19.526Z,26.85
2019-04-07T05:00:48.486Z,27.67
2019-04-07T05:03:17.993Z,26.68
2019-04-07T05:05:46.890Z,24.15
2019-04-07T05:08:16.145Z,27.52
2019-04-07T05:10:45.632Z,28.10
2019-04-07T05:13:14.064Z,30.02
2019-04-07T05:15:43.499Z,24.00
2019-04-07T05:18:12.034Z,25.90
2019-04-07T05:20:40.086Z,27.00
2019-04-07T05:23:08.648Z,23.80
2019-04-07T05:25:36.973Z,26.52
2019-04-07T05:28:05.871Z,22.95
2019-04-07T05:30:33.905Z,22.48
2019-04-07T05:33:03.495Z,25.05
2019-04-07T05:35:31.640Z,22.82
2019-04-07T05:38:03.492Z,22.50
2019-04-07T05:40:29.597Z,23.05
2019-04-07T05:42:57.511Z,21.68
2019-04-07T05:45:25.518Z,23.87
2019-04-07T05:47:53.533Z,24.53
2019-04-07T05:50:22.295Z,22.35
2019-04-07T05:52:50.771Z,21.50
2019-04-07T05:55:21.826Z,17.30
2019-04-07T05:57:49.697Z,19.77
2019-04-07T06:00:18.873Z,20.37
2019-04-07T06:02:47.178Z,21.20
2019-04-07T06:05:16.211Z,18.05
2019-04-07T06:07:45.928Z,19.40
2019-04-07T06:10:14.507Z,20.30
2019-04-07T06:12:46.867Z,23.90
2019-04-07T06:15:15.738Z,19.17
2019-04-07T06:17:43.653Z,18.42
2019-04-07T06:20:14.231Z,19.60
2019-04-07T06:22:41.413Z,18.70
2019-04-07T06:25:11.019Z,17.53
2019-04-07T06:27:39.356Z,18.20
2019-04-07T06:30:09.765Z,17.97
2019-04-07T06:32:39.485Z,17.07
2019-04-07T06:35:12.363Z,17.80
2019-04-07T06:37:39.747Z,16.60
2019-04-07T06:40:08.974Z,20.73
2019-04-07T06:42:37.587Z,14.20
2019-04-07T06:45:08.198Z,13.13
2019-04-07T06:47:48.640Z,13.13
2019-04-07T06:50:45.494Z,14.83
2019-04-07T06:53:16.349Z,14.10
2019-04-07T06:56:04.119Z,11.90
2019-04-07T06:58:55.635Z,12.07
2019-04-07T07:01:41.895Z,10.40
2019-04-07T07:04:30.074Z,11.70
2019-04-07T07:07:07.694Z,10.60
2019-04-07T07:09:52.021Z,12.27
2019-04-07T07:12:43.884Z,13.23
2019-04-07T07:15:26.830Z,10.50
2019-04-07T07:18:27.332Z,10.33
2019-04-07T07:21:16.579Z,11.57
2019-04-07T07:23:48.887Z,11.33
2019-04-07T07:26:15.970Z,10.10
2019-04-07T07:28:44.958Z,9.37
2019-04-07T07:31:14.304Z,10.93
2019-04-07T07:33:43.697Z,9.63
2019-04-07T07:36:12.452Z,10.40
2019-04-07T07:38:54.465Z,8.20
2019-04-07T07:41:11.929Z,9.27
2019-04-07T07:43:40.264Z,8.20
2019-04-07T07:46:08.718Z,8.47
2019-04-07T07:48:36.896Z,8.77
2019-04-07T07:51:07.170Z,9.50
2019-04-07T07:53:34.814Z,10.27
2019-04-07T07:56:03.209Z,8.63
2019-04-07T07:58:33.378Z,10.83
2019-04-07T08:01:01.556Z,11.60
2019-04-07T08:03:30.334Z,16.37
2019-04-07T08:05:59.049Z,17.00
2019-04-07T08:08:27.649Z,22.37
2019-04-07T08:10:59.107Z,11.53
2019-04-07T08:13:25.855Z,7.70
2019-04-07T08:15:56.621Z,8.57
2019-04-07T08:18:23.895Z,8.37
2019-04-07T08:20:52.228Z,14.23
2019-04-07T08:23:25.327Z,7.50
2019-04-07T08:25:56.063Z,7.27
2019-04-07T08:28:24.423Z,11.57
2019-04-07T08:30:52.940Z,10.20
2019-04-07T08:33:21.001Z,7.37
2019-04-07T08:35:50.270Z,8.90
2019-04-07T08:38:21.627Z,10.43
2019-04-07T08:40:49.688Z,7.67
2019-04-07T08:43:21.410Z,7.60
2019-04-07T08:45:48.052Z,7.63
2019-04-07T08:48:18.210Z,7.93
2019-04-07T08:50:47.451Z,7.33
2019-04-07T08:53:16.269Z,7.43
2019-04-07T08:55:47.758Z,7.00
2019-04-07T08:58:24.956Z,9.90
2019-04-07T09:00:50.806Z,7.30
2019-04-07T09:03:18.468Z,6.27
2019-04-07T09:05:46.766Z,6.13
2019-04-07T09:08:15.062Z,6.93
2019-04-07T09:10:56.960Z,7.30
2019-04-07T09:13:25.138Z,6.00
2019-04-07T09:16:25.071Z,8.50
2019-04-07T09:19:19.268Z,6.77
2019-04-07T09:21:57.036Z,10.27
2019-04-07T09:24:48.310Z,6.00
2019-04-07T09:27:25.811Z,6.50
2019-04-07T09:29:59.951Z,7.80
2019-04-07T09:32:46.220Z,5.20
2019-04-07T09:35:33.908Z,5.50
2019-04-07T09:38:24.949Z,6.47
2019-04-07T09:41:03.769Z,7.43
2019-04-07T09:43:48.456Z,5.80
2019-04-07T09:46:35.424Z,6.57
2019-04-07T09:49:24.385Z,4.40
2019-04-07T09:52:10.350Z,7.10
2019-04-07T09:54:55.474Z,3.93
2019-04-07T09:57:42.911Z,5.43
2019-04-07T10:00:30.943Z,4.03
2019-04-07T10:03:19.268Z,3.50
2019-04-07T10:06:16.742Z,4.83
2019-04-07T10:08:51.039Z,4.00
2019-04-07T10:11:26.312Z,6.67
2019-04-07T10:14:08.437Z,3.00
2019-04-07T10:17:08.757Z,4.57
2019-04-07T10:19:50.306Z,4.87
2019-04-07T10:22:44.160Z,3.03
2019-04-07T10:25:27.960Z,3.40
2019-04-07T10:28:08.915Z,5.00
2019-04-07T10:30:45.962Z,3.27
2019-04-07T10:33:22.591Z,4.27
2019-04-07T10:36:25.428Z,5.47
2019-04-07T10:39:16.093Z,3.43
2019-04-07T10:41:59.105Z,2.83
2019-04-07T10:44:50.447Z,6.07
2019-04-07T10:47:38.377Z,3.27
2019-04-07T10:50:31.442Z,4.47
2019-04-07T10:53:32.243Z,3.17
2019-04-07T10:56:19.931Z,2.80
2019-04-07T10:59:16.128Z,3.20
2019-04-07T11:01:53.462Z,4.07
2019-04-07T11:04:44.873Z,2.83
2019-04-07T11:07:21.803Z,2.47
2019-04-07T11:10:34.436Z,2.20
2019-04-07T11:13:16.039Z,2.47
2019-04-07T11:15:51.972Z,4.60
2019-04-07T11:18:40.348Z,3.07
2019-04-07T11:21:37.085Z,2.17
2019-04-07T11:24:23.999Z,3.00
2019-04-07T11:27:13.056Z,2.83
2019-04-07T11:29:45.571Z,2.60
2019-04-07T11:32:26.200Z,1.93
2019-04-07T11:35:32.105Z,2.67
2019-04-07T11:38:09.185Z,2.60
2019-04-07T11:40:50.737Z,2.83
2019-04-07T11:43:34.405Z,1.80
2019-04-07T11:46:22.077Z,2.30
2019-04-07T11:49:19.515Z,2.70
2019-04-07T11:51:53.597Z,2.80
2019-04-07T11:54:26.786Z,2.13
2019-04-07T11:57:13.990Z,3.50
2019-04-07T12:00:16.989Z,9.43
2019-04-07T12:02:53.586Z,5.50
2019-04-07T12:05:57.083Z,11.30
2019-04-07T12:08:38.659Z,2.13
2019-04-07T12:11:24.892Z,2.57
2019-04-07T12:14:17.033Z,3.43
2019-04-07T12:17:06.968Z,2.27
2019-04-07T12:19:54.702Z,2.10
2019-04-07T12:22:38.061Z,3.83
2019-04-07T12:25:33.355Z,2.93
2019-04-07T12:28:20.387Z,2.50
2019-04-07T12:31:04.225Z,2.07
2019-04-07T12:33:54.831Z,2.00
2019-04-07T12:36:48.448Z,3.33
2019-04-07T12:39:34.969Z,3.13
2019-04-07T12:42:18.512Z,2.53
2019-04-07T12:45:00.395Z,2.33
2019-04-07T12:47:55.112Z,3.60
2019-04-07T12:50:55.138Z,1.90
2019-04-07T12:53:43.397Z,1.87
2019-04-07T12:56:31.701Z,1.60
2019-04-07T12:59:19.251Z,3.00
2019-04-07T13:02:00.838Z,1.90
2019-04-07T13:04:56.050Z,2.00
2019-04-07T13:07:43.790Z,2.27
2019-04-07T13:10:30.219Z,2.20
2019-04-07T13:13:35.210Z,1.83
2019-04-07T13:16:21.019Z,2.50
2019-04-07T13:19:09.573Z,2.13
2019-04-07T13:22:03.060Z,2.60
2019-04-07T13:24:50.972Z,2.10
2019-04-07T13:27:35.188Z,2.60
2019-04-07T13:30:13.847Z,2.10
2019-04-07T13:33:03.156Z,3.27
2019-04-07T13:35:49.428Z,2.37
2019-04-07T13:38:38.322Z,4.73
2019-04-07T13:41:47.052Z,2.13
2019-04-07T13:44:36.722Z,2.40
2019-04-07T13:53:12.239Z,1.93
2019-04-07T13:55:52.045Z,1.93
2019-04-07T13:58:45.443Z,2.30
2019-04-07T14:01:22.300Z,2.73
2019-04-07T14:04:08.919Z,4.77
2019-04-07T14:06:59.952Z,2.20
2019-04-07T14:09:41.682Z,2.40
2019-04-07T14:12:30.970Z,2.10
2019-04-07T14:15:22.366Z,2.17
2019-04-07T14:17:57.960Z,1.97
2019-04-07T14:20:46.465Z,1.80
2019-04-07T14:23:37.185Z,1.97
2019-04-07T14:26:29.963Z,2.80
2019-04-07T14:29:05.556Z,2.10
2019-04-07T14:31:49.124Z,2.20
2019-04-07T14:34:40.239Z,1.57
2019-04-07T14:37:28.158Z,2.13
2019-04-07T14:40:16.233Z,2.47
2019-04-07T14:43:02.874Z,2.17
2019-04-07T14:45:56.882Z,2.60
2019-04-07T14:48:53.159Z,2.50
2019-04-07T14:51:42.457Z,2.20
2019-04-07T14:54:41.948Z,2.40
2019-04-07T14:57:28.760Z,2.90
2019-04-07T15:00:31.718Z,2.10
2019-04-07T15:03:00.837Z,3.10
2019-04-07T15:05:32.659Z,2.17
2019-04-07T15:08:26.521Z,1.70
2019-04-07T15:10:58.901Z,2.10
2019-04-07T15:13:28.227Z,2.50
2019-04-07T15:15:58.255Z,1.87
2019-04-07T15:18:27.521Z,2.63
2019-04-07T15:20:56.130Z,1.97
2019-04-07T15:23:29.479Z,2.90
2019-04-07T15:25:56.796Z,3.30
2019-04-07T15:28:29.757Z,2.27
2019-04-07T15:30:55.724Z,1.93
2019-04-07T15:33:25.344Z,1.73
2019-04-07T15:35:54.498Z,2.93
2019-04-07T15:38:26.993Z,1.90
2019-04-07T15:40:52.961Z,1.70
2019-04-07T15:43:21.202Z,3.83
2019-04-07T15:45:50.132Z,2.27
2019-04-07T15:48:19.097Z,2.40
2019-04-07T15:50:47.543Z,2.77
2019-04-07T15:53:16.566Z,2.73
2019-04-07T15:55:52.993Z,2.60
2019-04-07T15:58:14.991Z,2.10
2019-04-07T16:00:45.144Z,2.00
2019-04-07T16:03:15.764Z,6.80
2019-04-07T16:05:46.093Z,1.70
2019-04-07T16:08:14.345Z,2.17
2019-04-07T16:10:42.613Z,2.23
2019-04-07T16:13:10.985Z,2.00
2019-04-07T16:15:39.091Z,2.77
2019-04-07T16:18:08.506Z,2.30
2019-04-07T16:20:40.232Z,2.03
2019-04-07T16:23:07.095Z,3.37
2019-04-07T16:25:37.343Z,2.27
2019-04-07T16:28:09.095Z,2.30
2019-04-07T16:30:36.392Z,2.60
2019-04-07T16:33:05.642Z,2.03
2019-04-07T16:35:34.552Z,1.93
2019-04-07T16:38:03.017Z,4.20
2019-04-07T16:40:32.073Z,2.30
2019-04-07T16:43:11.598Z,2.27
2019-04-07T16:45:30.432Z,1.90
2019-04-07T16:47:58.847Z,1.70
2019-04-07T16:50:27.415Z,1.67
2019-04-07T16:52:57.496Z,2.30
2019-04-07T16:55:38.076Z,2.30
2019-04-07T16:58:06.481Z,4.90
2019-04-07T17:00:35.596Z,2.60
2019-04-07T17:03:07.648Z,2.53
2019-04-07T17:05:37.577Z,2.60
2019-04-07T17:08:06.209Z,3.13
2019-04-07T17:10:35.431Z,2.60
2019-04-07T17:13:14.598Z,2.10
2019-04-07T17:15:37.456Z,2.73
2019-04-07T17:18:24.784Z,2.23
2019-04-07T17:20:51.711Z,2.73
2019-04-07T17:23:23.144Z,2.60
2019-04-07T17:25:53.001Z,3.73
2019-04-07T17:28:21.578Z,3.03
2019-04-07T17:30:50.635Z,4.70
2019-04-07T17:33:20.871Z,8.47
2019-04-07T17:35:48.973Z,2.90
2019-04-07T17:38:18.739Z,5.00
2019-04-07T17:40:49.245Z,6.27
2019-04-07T17:43:46.539Z,4.03
2019-04-07T17:46:13.082Z,2.73
2019-04-07T17:48:56.727Z,2.80
2019-04-07T17:51:39.312Z,3.03
2019-04-07T17:54:28.850Z,3.93
2019-04-07T17:57:04.432Z,5.00
2019-04-07T17:59:50.388Z,4.50
2019-04-07T18:02:47.615Z,3.93
2019-04-07T18:05:29.625Z,3.07
2019-04-07T18:08:34.279Z,3.23
2019-04-07T18:11:12.979Z,2.80
2019-04-07T18:14:00.823Z,3.00
2019-04-07T18:16:48.273Z,2.97
2019-04-07T18:19:36.365Z,3.60
2019-04-07T18:22:36.942Z,6.60
2019-04-07T18:25:35.313Z,3.60
2019-04-07T18:28:39.114Z,17.37
2019-04-07T18:31:27.445Z,3.10
2019-04-07T18:34:15.322Z,4.23
2019-04-07T18:36:54.274Z,5.00
2019-04-07T18:39:43.052Z,4.40
2019-04-07T18:42:31.147Z,6.80
2019-04-07T18:45:21.612Z,4.00
2019-04-07T18:48:12.501Z,5.87
2019-04-07T18:51:03.072Z,5.87
2019-04-07T18:53:49.523Z,10.60
2019-04-07T18:56:54.566Z,7.57
2019-04-07T18:59:59.356Z,5.47
2019-04-07T19:02:45.977Z,9.63
2019-04-07T19:05:22.145Z,6.63
2019-04-07T19:08:02.703Z,6.97
2019-04-07T19:10:38.956Z,4.63
2019-04-07T19:13:26.753Z,8.17
2019-04-07T19:16:12.524Z,6.80
2019-04-07T19:18:58.801Z,6.73
2019-04-07T19:21:38.800Z,10.13
2019-04-07T19:24:30.188Z,9.17
2019-04-07T19:27:25.388Z,9.40
2019-04-07T19:30:14.025Z,10.07
2019-04-07T19:33:02.501Z,8.27
2019-04-07T19:36:02.832Z,7.03
2019-04-07T19:38:54.318Z,11.37
2019-04-07T19:41:48.939Z,9.50
2019-04-07T19:44:53.218Z,9.40
2019-04-07T19:47:41.705Z,7.80
2019-04-07T19:50:32.818Z,7.43
2019-04-07T19:53:20.316Z,7.90
2019-04-07T19:56:08.025Z,6.50
2019-04-07T19:58:55.601Z,9.33
2019-04-07T20:01:40.046Z,18.80
2019-04-07T20:04:33.629Z,15.30
2019-04-07T20:07:13.671Z,12.67
2019-04-07T20:10:04.946Z,9.73
2019-04-07T20:12:51.820Z,10.60
2019-04-07T20:15:31.009Z,13.50
2019-04-07T20:18:19.260Z,11.10
2019-04-07T20:21:08.485Z,10.63
2019-04-07T20:23:43.532Z,9.40
2019-04-07T20:26:22.277Z,6.83
2019-04-07T20:29:15.644Z,6.17
2019-04-07T20:32:03.386Z,5.13
2019-04-07T20:34:54.602Z,7.93
2019-04-07T20:37:46.675Z,9.90
2019-04-07T20:40:44.047Z,7.23
2019-04-07T20:43:35.235Z,7.27
2019-04-07T20:46:26.246Z,11.87
2019-04-07T20:49:22.691Z,7.03
2019-04-07T20:52:08.949Z,9.57
2019-04-07T20:54:55.266Z,6.50
2019-04-07T20:57:42.942Z,9.50
2019-04-07T21:00:37.176Z,7.63
2019-04-07T21:03:32.134Z,7.60
2019-04-07T21:06:34.697Z,7.53
2019-04-07T21:09:12.303Z,5.77
2019-04-07T21:11:58.778Z,10.67
2019-04-07T21:14:45.648Z,5.30
2019-04-07T21:17:23.786Z,7.90
2019-04-07T21:20:27.813Z,6.53
2019-04-07T21:23:25.280Z,7.17
2019-04-07T21:26:20.955Z,6.63
2019-04-07T21:29:11.422Z,7.23
2019-04-07T21:32:08.819Z,7.50
2019-04-07T21:35:00.550Z,6.37
2019-04-07T21:37:57.235Z,5.40
2019-04-07T21:40:48.122Z,7.27
2019-04-07T21:43:47.480Z,6.93
2019-04-07T21:46:41.324Z,6.07
2019-04-07T21:49:24.554Z,6.17
2019-04-07T21:52:00.094Z,7.40
2019-04-07T21:55:00.438Z,6.60
2019-04-07T21:57:46.691Z,6.37
2019-04-07T22:00:32.626Z,8.97
2019-04-07T22:03:23.500Z,7.70
2019-04-07T22:06:05.552Z,7.13
2019-04-07T22:08:56.084Z,5.93
2019-04-07T22:11:28.157Z,6.00
2019-04-07T22:13:54.140Z,5.80
2019-04-07T22:16:24.205Z,6.30
2019-04-07T22:18:52.158Z,6.30
2019-04-07T22:21:22.361Z,7.17
2019-04-07T22:23:54.215Z,5.23
2019-04-07T22:26:22.313Z,6.07
2019-04-07T22:28:50.269Z,6.20
2019-04-07T22:31:23.390Z,8.10
2019-04-07T22:33:53.488Z,7.10
2019-04-07T22:36:21.887Z,6.27
2019-04-07T22:38:54.421Z,7.30
2019-04-07T22:41:19.841Z,6.77
2019-04-07T22:43:50.241Z,6.60
2019-04-07T22:46:23.490Z,7.10
2019-04-07T22:48:48.105Z,6.63
2019-04-07T22:51:16.734Z,6.20
2019-04-07T22:53:45.475Z,6.43
2019-04-07T22:56:13.991Z,6.60
2019-04-07T22:58:42.358Z,10.10
2019-04-07T23:01:11.112Z,6.37
2019-04-07T23:03:39.182Z,6.60
2019-04-07T23:06:07.514Z,6.97
2019-04-07T23:08:36.976Z,10.93
2019-04-07T23:11:05.069Z,7.03
2019-04-07T23:13:33.659Z,10.87
2019-04-07T23:16:10.767Z,10.67
2019-04-07T23:18:31.791Z,8.87
2019-04-07T23:21:01.169Z,11.50
2019-04-07T23:23:31.008Z,11.00
2019-04-07T23:25:59.880Z,11.07
2019-04-07T23:28:27.926Z,11.50
2019-04-07T23:30:56.944Z,12.40
2019-04-07T23:33:25.569Z,12.57
2019-04-07T23:35:53.623Z,13.20
2019-04-07T23:38:21.939Z,12.27
2019-04-07T23:40:50.000Z,14.93
2019-04-07T23:43:18.085Z,14.77
2019-04-07T23:45:47.527Z,15.17
2019-04-07T23:48:15.851Z,13.43
2019-04-07T23:50:43.930Z,13.83
2019-04-07T23:54:08.660Z,14.57
2019-04-07T23:56:39.407Z,14.83
2019-04-07T23:59:08.198Z,16.30
